sensor_id;sensor_type;location;lat;lon;timestamp;temperature;humidity
35531;DHT22;21637;53.352;-6.356;2022-11-20T00:02:20;7.70;99.90
35531;DHT22;21637;53.352;-6.356;2022-11-20T00:04:45;7.70;99.90
35531;DHT22;21637;53.352;-6.356;2022-11-20T00:07:11;7.60;99.90
35531;DHT22;21637;53.352;-6.356;2022-11-20T00:09:36;7.60;99.90
35531;DHT22;21637;53.352;-6.356;2022-11-20T00:12:02;7.50;99.90
35531;DHT22;21637;53.352;-6.356;2022-11-20T00:14:27;7.50;99.90
35531;DHT22;21637;53.352;-6.356;2022-11-20T00:16:53;7.50;99.90
35531;DHT22;21637;53.352;-6.356;2022-11-20T00:19:19;7.50;99.90
35531;DHT22;21637;53.352;-6.356;2022-11-20T00:21:44;7.50;99.90
35531;DHT22;21637;53.352;-6.356;2022-11-20T00:24:10;7.50;99.90
35531;DHT22;21637;53.352;-6.356;2022-11-20T00:26:36;7.50;99.90
35531;DHT22;21637;53.352;-6.356;2022-11-20T00:29:01;7.40;99.90
35531;DHT22;21637;53.352;-6.356;2022-11-20T00:31:28;7.40;99.90
35531;DHT22;21637;53.352;-6.356;2022-11-20T00:33:53;7.40;99.90
35531;DHT22;21637;53.352;-6.356;2022-11-20T00:36:20;7.40;99.90
35531;DHT22;21637;53.352;-6.356;2022-11-20T00:38:46;7.30;99.90
35531;DHT22;21637;53.352;-6.356;2022-11-20T00:41:13;7.30;99.90
35531;DHT22;21637;53.352;-6.356;2022-11-20T00:43:39;7.30;99.90
35531;DHT22;21637;53.352;-6.356;2022-11-20T00:46:06;7.20;99.90
35531;DHT22;21637;53.352;-6.356;2022-11-20T00:48:32;7.20;99.90
35531;DHT22;21637;53.352;-6.356;2022-11-20T00:50:57;7.20;99.90
35531;DHT22;21637;53.352;-6.356;2022-11-20T00:53:23;7.10;99.90
35531;DHT22;21637;53.352;-6.356;2022-11-20T00:55:53;7.10;99.90
35531;DHT22;21637;53.352;-6.356;2022-11-20T00:58:19;7.10;99.90
35531;DHT22;21637;53.352;-6.356;2022-11-20T01:00:44;7.10;99.90
35531;DHT22;21637;53.352;-6.356;2022-11-20T01:03:10;7.10;99.90
35531;DHT22;21637;53.352;-6.356;2022-11-20T01:05:35;7.00;99.90
35531;DHT22;21637;53.352;-6.356;2022-11-20T01:08:01;7.00;99.90
35531;DHT22;21637;53.352;-6.356;2022-11-20T01:10:27;7.00;99.90
35531;DHT22;21637;53.352;-6.356;2022-11-20T01:12:52;6.90;99.90
35531;DHT22;21637;53.352;-6.356;2022-11-20T01:15:38;6.90;99.90
35531;DHT22;21637;53.352;-6.356;2022-11-20T01:18:03;6.90;99.90
35531;DHT22;21637;53.352;-6.356;2022-11-20T01:20:29;6.80;99.90
35531;DHT22;21637;53.352;-6.356;2022-11-20T01:22:54;6.90;99.90
35531;DHT22;21637;53.352;-6.356;2022-11-20T01:25:20;6.80;99.90
35531;DHT22;21637;53.352;-6.356;2022-11-20T01:27:45;6.80;99.90
35531;DHT22;21637;53.352;-6.356;2022-11-20T01:30:11;6.80;99.90
35531;DHT22;21637;53.352;-6.356;2022-11-20T01:32:37;6.70;99.90
35531;DHT22;21637;53.352;-6.356;2022-11-20T01:35:02;6.70;99.90
35531;DHT22;21637;53.352;-6.356;2022-11-20T01:37:28;6.80;99.90
35531;DHT22;21637;53.352;-6.356;2022-11-20T01:39:54;6.80;99.90
35531;DHT22;21637;53.352;-6.356;2022-11-20T01:42:19;6.90;99.90
35531;DHT22;21637;53.352;-6.356;2022-11-20T01:45:42;6.90;99.90
35531;DHT22;21637;53.352;-6.356;2022-11-20T01:47:49;7.00;99.90
35531;DHT22;21637;53.352;-6.356;2022-11-20T01:50:25;7.00;99.90
35531;DHT22;21637;53.352;-6.356;2022-11-20T01:52:55;7.00;99.90
35531;DHT22;21637;53.352;-6.356;2022-11-20T01:55:23;7.10;99.90
35531;DHT22;21637;53.352;-6.356;2022-11-20T01:57:50;7.10;99.90
35531;DHT22;21637;53.352;-6.356;2022-11-20T02:00:17;7.10;99.90
35531;DHT22;21637;53.352;-6.356;2022-11-20T02:02:45;7.10;99.90
35531;DHT22;21637;53.352;-6.356;2022-11-20T02:05:14;7.10;99.90
35531;DHT22;21637;53.352;-6.356;2022-11-20T02:07:42;7.10;99.90
35531;DHT22;21637;53.352;-6.356;2022-11-20T02:10:08;7.10;99.90
35531;DHT22;21637;53.352;-6.356;2022-11-20T02:12:33;7.10;99.90
35531;DHT22;21637;53.352;-6.356;2022-11-20T02:15:17;7.10;99.90
35531;DHT22;21637;53.352;-6.356;2022-11-20T02:17:43;7.10;99.90
35531;DHT22;21637;53.352;-6.356;2022-11-20T02:20:09;7.10;99.90
35531;DHT22;21637;53.352;-6.356;2022-11-20T02:22:36;7.10;99.90
35531;DHT22;21637;53.352;-6.356;2022-11-20T02:25:03;7.10;99.90
35531;DHT22;21637;53.352;-6.356;2022-11-20T02:27:29;7.10;99.90
35531;DHT22;21637;53.352;-6.356;2022-11-20T02:30:05;7.00;99.90
35531;DHT22;21637;53.352;-6.356;2022-11-20T02:32:33;7.00;99.90
35531;DHT22;21637;53.352;-6.356;2022-11-20T02:35:09;7.00;99.90
35531;DHT22;21637;53.352;-6.356;2022-11-20T02:37:36;7.00;99.90
35531;DHT22;21637;53.352;-6.356;2022-11-20T02:40:02;7.10;99.90
35531;DHT22;21637;53.352;-6.356;2022-11-20T02:42:28;7.10;99.90
35531;DHT22;21637;53.352;-6.356;2022-11-20T02:44:53;7.10;99.90
35531;DHT22;21637;53.352;-6.356;2022-11-20T02:47:19;7.20;99.90
35531;DHT22;21637;53.352;-6.356;2022-11-20T02:49:44;7.10;99.90
35531;DHT22;21637;53.352;-6.356;2022-11-20T02:52:10;7.10;99.90
35531;DHT22;21637;53.352;-6.356;2022-11-20T02:54:35;7.10;99.90
35531;DHT22;21637;53.352;-6.356;2022-11-20T02:57:01;7.00;99.90
35531;DHT22;21637;53.352;-6.356;2022-11-20T02:59:27;6.90;99.90
35531;DHT22;21637;53.352;-6.356;2022-11-20T03:01:52;6.80;99.90
35531;DHT22;21637;53.352;-6.356;2022-11-20T03:04:18;6.70;99.90
35531;DHT22;21637;53.352;-6.356;2022-11-20T03:06:43;6.70;99.90
35531;DHT22;21637;53.352;-6.356;2022-11-20T03:09:09;6.50;99.90
35531;DHT22;21637;53.352;-6.356;2022-11-20T03:11:34;6.50;99.90
35531;DHT22;21637;53.352;-6.356;2022-11-20T03:14:03;6.40;99.90
35531;DHT22;21637;53.352;-6.356;2022-11-20T03:16:30;6.30;99.90
35531;DHT22;21637;53.352;-6.356;2022-11-20T03:18:56;6.20;99.90
35531;DHT22;21637;53.352;-6.356;2022-11-20T03:21:21;6.20;99.90
35531;DHT22;21637;53.352;-6.356;2022-11-20T03:23:47;6.10;99.90
35531;DHT22;21637;53.352;-6.356;2022-11-20T03:26:19;6.10;99.90
35531;DHT22;21637;53.352;-6.356;2022-11-20T03:28:46;6.10;99.90
35531;DHT22;21637;53.352;-6.356;2022-11-20T03:31:13;6.00;99.90
35531;DHT22;21637;53.352;-6.356;2022-11-20T03:33:39;6.10;99.90
35531;DHT22;21637;53.352;-6.356;2022-11-20T03:36:06;6.10;99.90
35531;DHT22;21637;53.352;-6.356;2022-11-20T03:38:32;6.10;99.90
35531;DHT22;21637;53.352;-6.356;2022-11-20T03:40:59;6.10;99.90
35531;DHT22;21637;53.352;-6.356;2022-11-20T03:43:25;6.20;99.90
35531;DHT22;21637;53.352;-6.356;2022-11-20T03:45:51;6.20;99.90
35531;DHT22;21637;53.352;-6.356;2022-11-20T03:48:16;6.20;99.90
35531;DHT22;21637;53.352;-6.356;2022-11-20T03:50:42;6.20;99.90
35531;DHT22;21637;53.352;-6.356;2022-11-20T03:53:07;6.20;99.90
35531;DHT22;21637;53.352;-6.356;2022-11-20T03:55:33;6.20;99.90
35531;DHT22;21637;53.352;-6.356;2022-11-20T03:57:58;6.20;99.90
35531;DHT22;21637;53.352;-6.356;2022-11-20T04:00:24;6.20;99.90
35531;DHT22;21637;53.352;-6.356;2022-11-20T04:02:49;6.30;99.90
35531;DHT22;21637;53.352;-6.356;2022-11-20T04:05:15;6.30;99.90
35531;DHT22;21637;53.352;-6.356;2022-11-20T04:07:40;6.30;99.90
35531;DHT22;21637;53.352;-6.356;2022-11-20T04:10:06;6.30;99.90
35531;DHT22;21637;53.352;-6.356;2022-11-20T04:12:32;6.30;99.90
35531;DHT22;21637;53.352;-6.356;2022-11-20T04:14:58;6.30;99.90
35531;DHT22;21637;53.352;-6.356;2022-11-20T04:17:24;6.30;99.90
35531;DHT22;21637;53.352;-6.356;2022-11-20T04:19:49;6.30;99.90
35531;DHT22;21637;53.352;-6.356;2022-11-20T04:22:15;6.30;99.90
35531;DHT22;21637;53.352;-6.356;2022-11-20T04:24:40;6.20;99.90
35531;DHT22;21637;53.352;-6.356;2022-11-20T04:27:06;6.30;99.90
35531;DHT22;21637;53.352;-6.356;2022-11-20T04:29:32;6.30;99.90
35531;DHT22;21637;53.352;-6.356;2022-11-20T04:31:57;6.40;99.90
35531;DHT22;21637;53.352;-6.356;2022-11-20T04:34:23;6.40;99.90
35531;DHT22;21637;53.352;-6.356;2022-11-20T04:36:48;6.40;99.90
35531;DHT22;21637;53.352;-6.356;2022-11-20T04:39:14;6.50;99.90
35531;DHT22;21637;53.352;-6.356;2022-11-20T04:41:40;6.50;99.90
35531;DHT22;21637;53.352;-6.356;2022-11-20T04:44:06;6.50;99.90
35531;DHT22;21637;53.352;-6.356;2022-11-20T04:46:33;6.50;99.90
35531;DHT22;21637;53.352;-6.356;2022-11-20T04:48:59;6.50;99.90
35531;DHT22;21637;53.352;-6.356;2022-11-20T04:51:24;6.40;99.90
35531;DHT22;21637;53.352;-6.356;2022-11-20T04:53:50;6.40;99.90
35531;DHT22;21637;53.352;-6.356;2022-11-20T04:56:16;6.50;99.90
35531;DHT22;21637;53.352;-6.356;2022-11-20T04:58:42;6.40;99.90
35531;DHT22;21637;53.352;-6.356;2022-11-20T05:03:40;6.50;99.90
35531;DHT22;21637;53.352;-6.356;2022-11-20T05:06:06;6.50;99.90
35531;DHT22;21637;53.352;-6.356;2022-11-20T05:08:32;6.50;99.90
35531;DHT22;21637;53.352;-6.356;2022-11-20T05:11:01;6.40;99.90
35531;DHT22;21637;53.352;-6.356;2022-11-20T05:13:27;6.50;99.90
35531;DHT22;21637;53.352;-6.356;2022-11-20T05:15:53;6.40;99.90
35531;DHT22;21637;53.352;-6.356;2022-11-20T05:18:18;6.40;99.90
35531;DHT22;21637;53.352;-6.356;2022-11-20T05:20:44;6.40;99.90
35531;DHT22;21637;53.352;-6.356;2022-11-20T05:23:09;6.40;99.90
35531;DHT22;21637;53.352;-6.356;2022-11-20T05:25:35;6.40;99.90
35531;DHT22;21637;53.352;-6.356;2022-11-20T05:28:00;6.40;99.90
35531;DHT22;21637;53.352;-6.356;2022-11-20T05:30:26;6.30;99.90
35531;DHT22;21637;53.352;-6.356;2022-11-20T05:32:51;6.20;99.90
35531;DHT22;21637;53.352;-6.356;2022-11-20T05:35:17;6.20;99.90
35531;DHT22;21637;53.352;-6.356;2022-11-20T05:37:42;6.30;99.90
35531;DHT22;21637;53.352;-6.356;2022-11-20T05:40:08;6.20;99.90
35531;DHT22;21637;53.352;-6.356;2022-11-20T05:42:34;6.20;99.90
35531;DHT22;21637;53.352;-6.356;2022-11-20T05:45:01;6.10;99.90
35531;DHT22;21637;53.352;-6.356;2022-11-20T05:47:27;6.10;99.90
35531;DHT22;21637;53.352;-6.356;2022-11-20T05:49:53;6.10;99.90
35531;DHT22;21637;53.352;-6.356;2022-11-20T05:52:19;6.10;99.90
35531;DHT22;21637;53.352;-6.356;2022-11-20T05:54:45;6.10;99.90
35531;DHT22;21637;53.352;-6.356;2022-11-20T05:57:10;6.10;99.90
35531;DHT22;21637;53.352;-6.356;2022-11-20T05:59:36;6.10;99.90
35531;DHT22;21637;53.352;-6.356;2022-11-20T06:02:01;6.10;99.90
35531;DHT22;21637;53.352;-6.356;2022-11-20T06:04:27;6.10;99.90
35531;DHT22;21637;53.352;-6.356;2022-11-20T06:06:52;6.10;99.90
35531;DHT22;21637;53.352;-6.356;2022-11-20T06:09:18;6.10;99.90
35531;DHT22;21637;53.352;-6.356;2022-11-20T06:11:44;6.20;99.90
35531;DHT22;21637;53.352;-6.356;2022-11-20T06:14:09;6.20;99.90
35531;DHT22;21637;53.352;-6.356;2022-11-20T06:16:35;6.20;99.90
35531;DHT22;21637;53.352;-6.356;2022-11-20T06:19:00;6.20;99.90
35531;DHT22;21637;53.352;-6.356;2022-11-20T06:21:26;6.10;99.90
35531;DHT22;21637;53.352;-6.356;2022-11-20T06:23:52;6.10;99.90
35531;DHT22;21637;53.352;-6.356;2022-11-20T06:26:21;6.10;99.90
35531;DHT22;21637;53.352;-6.356;2022-11-20T06:28:47;6.10;99.90
35531;DHT22;21637;53.352;-6.356;2022-11-20T06:31:14;6.10;99.90
35531;DHT22;21637;53.352;-6.356;2022-11-20T06:33:40;6.10;99.90
35531;DHT22;21637;53.352;-6.356;2022-11-20T06:36:06;6.00;99.90
35531;DHT22;21637;53.352;-6.356;2022-11-20T06:38:31;6.00;99.90
35531;DHT22;21637;53.352;-6.356;2022-11-20T06:40:57;6.00;99.90
35531;DHT22;21637;53.352;-6.356;2022-11-20T06:43:23;6.00;99.90
35531;DHT22;21637;53.352;-6.356;2022-11-20T06:45:55;6.00;99.90
35531;DHT22;21637;53.352;-6.356;2022-11-20T06:48:21;6.00;99.90
35531;DHT22;21637;53.352;-6.356;2022-11-20T06:50:46;6.00;99.90
35531;DHT22;21637;53.352;-6.356;2022-11-20T06:53:12;6.00;99.90
35531;DHT22;21637;53.352;-6.356;2022-11-20T06:55:41;6.00;99.90
35531;DHT22;21637;53.352;-6.356;2022-11-20T06:58:07;5.90;99.90
35531;DHT22;21637;53.352;-6.356;2022-11-20T07:00:32;6.00;99.90
35531;DHT22;21637;53.352;-6.356;2022-11-20T07:02:58;6.00;99.90
35531;DHT22;21637;53.352;-6.356;2022-11-20T07:05:23;6.00;99.90
35531;DHT22;21637;53.352;-6.356;2022-11-20T07:07:49;5.90;99.90
35531;DHT22;21637;53.352;-6.356;2022-11-20T07:10:14;5.90;99.90
35531;DHT22;21637;53.352;-6.356;2022-11-20T07:12:40;5.90;99.90
35531;DHT22;21637;53.352;-6.356;2022-11-20T07:15:06;5.90;99.90
35531;DHT22;21637;53.352;-6.356;2022-11-20T07:17:31;5.80;99.90
35531;DHT22;21637;53.352;-6.356;2022-11-20T07:19:57;5.80;99.90
35531;DHT22;21637;53.352;-6.356;2022-11-20T07:22:22;5.80;99.90
35531;DHT22;21637;53.352;-6.356;2022-11-20T07:24:48;5.80;99.90
35531;DHT22;21637;53.352;-6.356;2022-11-20T07:27:14;5.80;99.90
35531;DHT22;21637;53.352;-6.356;2022-11-20T07:29:39;5.80;99.90
35531;DHT22;21637;53.352;-6.356;2022-11-20T07:32:05;5.80;99.90
35531;DHT22;21637;53.352;-6.356;2022-11-20T07:34:30;5.80;99.90
35531;DHT22;21637;53.352;-6.356;2022-11-20T07:36:56;5.80;99.90
35531;DHT22;21637;53.352;-6.356;2022-11-20T07:39:21;5.80;99.90
35531;DHT22;21637;53.352;-6.356;2022-11-20T07:41:47;5.80;99.90
35531;DHT22;21637;53.352;-6.356;2022-11-20T07:44:12;5.80;99.90
35531;DHT22;21637;53.352;-6.356;2022-11-20T07:46:38;5.90;99.90
35531;DHT22;21637;53.352;-6.356;2022-11-20T07:49:04;6.00;99.90
35531;DHT22;21637;53.352;-6.356;2022-11-20T07:51:29;6.00;99.90
35531;DHT22;21637;53.352;-6.356;2022-11-20T07:53:55;6.10;99.90
35531;DHT22;21637;53.352;-6.356;2022-11-20T07:56:20;6.10;99.90
35531;DHT22;21637;53.352;-6.356;2022-11-20T07:58:46;6.20;99.90
35531;DHT22;21637;53.352;-6.356;2022-11-20T08:01:11;6.20;99.90
35531;DHT22;21637;53.352;-6.356;2022-11-20T08:03:37;6.20;99.90
35531;DHT22;21637;53.352;-6.356;2022-11-20T08:06:03;6.20;99.90
35531;DHT22;21637;53.352;-6.356;2022-11-20T08:08:28;6.30;99.90
35531;DHT22;21637;53.352;-6.356;2022-11-20T08:10:56;6.40;99.90
35531;DHT22;21637;53.352;-6.356;2022-11-20T08:13:41;6.40;99.90
35531;DHT22;21637;53.352;-6.356;2022-11-20T08:16:26;6.50;99.90
35531;DHT22;21637;53.352;-6.356;2022-11-20T08:18:51;6.60;99.90
35531;DHT22;21637;53.352;-6.356;2022-11-20T08:21:17;6.60;99.90
35531;DHT22;21637;53.352;-6.356;2022-11-20T08:23:42;6.60;99.90
35531;DHT22;21637;53.352;-6.356;2022-11-20T08:26:08;6.60;99.90
35531;DHT22;21637;53.352;-6.356;2022-11-20T08:28:33;6.70;99.90
35531;DHT22;21637;53.352;-6.356;2022-11-20T08:30:59;6.70;99.90
35531;DHT22;21637;53.352;-6.356;2022-11-20T08:33:25;6.70;99.90
35531;DHT22;21637;53.352;-6.356;2022-11-20T08:35:51;6.80;99.90
35531;DHT22;21637;53.352;-6.356;2022-11-20T08:38:16;6.90;99.90
35531;DHT22;21637;53.352;-6.356;2022-11-20T08:40:42;7.00;99.90
35531;DHT22;21637;53.352;-6.356;2022-11-20T08:43:27;6.90;99.90
35531;DHT22;21637;53.352;-6.356;2022-11-20T08:45:53;7.10;99.90
35531;DHT22;21637;53.352;-6.356;2022-11-20T08:48:18;7.10;99.90
35531;DHT22;21637;53.352;-6.356;2022-11-20T08:50:44;7.20;99.90
35531;DHT22;21637;53.352;-6.356;2022-11-20T08:53:09;7.30;99.90
35531;DHT22;21637;53.352;-6.356;2022-11-20T08:55:35;7.30;99.90
35531;DHT22;21637;53.352;-6.356;2022-11-20T08:58:05;7.30;99.90
35531;DHT22;21637;53.352;-6.356;2022-11-20T09:00:31;7.40;99.90
35531;DHT22;21637;53.352;-6.356;2022-11-20T09:02:57;7.40;99.90
35531;DHT22;21637;53.352;-6.356;2022-11-20T09:05:24;7.40;99.90
35531;DHT22;21637;53.352;-6.356;2022-11-20T09:07:49;7.40;99.90
35531;DHT22;21637;53.352;-6.356;2022-11-20T09:10:15;7.40;99.90
35531;DHT22;21637;53.352;-6.356;2022-11-20T09:12:41;7.40;99.90
35531;DHT22;21637;53.352;-6.356;2022-11-20T09:15:06;7.40;99.90
35531;DHT22;21637;53.352;-6.356;2022-11-20T09:17:32;7.40;99.90
35531;DHT22;21637;53.352;-6.356;2022-11-20T09:19:58;7.40;99.90
35531;DHT22;21637;53.352;-6.356;2022-11-20T09:22:24;7.40;99.90
35531;DHT22;21637;53.352;-6.356;2022-11-20T09:24:49;7.40;99.90
35531;DHT22;21637;53.352;-6.356;2022-11-20T09:27:15;7.40;99.90
35531;DHT22;21637;53.352;-6.356;2022-11-20T09:29:45;7.40;99.90
35531;DHT22;21637;53.352;-6.356;2022-11-20T09:32:11;7.40;99.90
35531;DHT22;21637;53.352;-6.356;2022-11-20T09:34:37;7.40;99.90
35531;DHT22;21637;53.352;-6.356;2022-11-20T09:37:02;7.40;99.90
35531;DHT22;21637;53.352;-6.356;2022-11-20T09:39:28;7.50;99.90
35531;DHT22;21637;53.352;-6.356;2022-11-20T09:47:07;7.50;99.90
35531;DHT22;21637;53.352;-6.356;2022-11-20T09:55:02;7.80;99.90
35531;DHT22;21637;53.352;-6.356;2022-11-20T09:57:39;7.80;99.90
35531;DHT22;21637;53.352;-6.356;2022-11-20T10:00:08;7.90;99.90
35531;DHT22;21637;53.352;-6.356;2022-11-20T10:05:06;8.00;99.90
35531;DHT22;21637;53.352;-6.356;2022-11-20T10:07:44;8.00;99.90
35531;DHT22;21637;53.352;-6.356;2022-11-20T10:10:16;8.00;99.90
35531;DHT22;21637;53.352;-6.356;2022-11-20T10:12:52;8.00;99.90
35531;DHT22;21637;53.352;-6.356;2022-11-20T10:15:38;8.00;99.90
35531;DHT22;21637;53.352;-6.356;2022-11-20T10:29:01;8.20;99.90
35531;DHT22;21637;53.352;-6.356;2022-11-20T10:31:34;8.10;99.90
35531;DHT22;21637;53.352;-6.356;2022-11-20T10:34:01;8.10;99.90
35531;DHT22;21637;53.352;-6.356;2022-11-20T10:36:36;8.10;99.90
35531;DHT22;21637;53.352;-6.356;2022-11-20T10:39:06;8.10;99.90
35531;DHT22;21637;53.352;-6.356;2022-11-20T10:41:35;8.20;99.90
35531;DHT22;21637;53.352;-6.356;2022-11-20T10:44:12;8.20;99.90
35531;DHT22;21637;53.352;-6.356;2022-11-20T10:46:40;8.20;99.90
35531;DHT22;21637;53.352;-6.356;2022-11-20T10:49:12;8.20;99.90
35531;DHT22;21637;53.352;-6.356;2022-11-20T10:54:25;8.30;99.90
35531;DHT22;21637;53.352;-6.356;2022-11-20T10:56:56;8.40;99.90
35531;DHT22;21637;53.352;-6.356;2022-11-20T11:01:49;8.40;99.90
35531;DHT22;21637;53.352;-6.356;2022-11-20T11:04:36;8.40;99.90
35531;DHT22;21637;53.352;-6.356;2022-11-20T11:07:43;8.30;99.90
35531;DHT22;21637;53.352;-6.356;2022-11-20T11:09:51;8.30;99.90
35531;DHT22;21637;53.352;-6.356;2022-11-20T11:12:17;8.20;99.90
35531;DHT22;21637;53.352;-6.356;2022-11-20T11:14:44;8.20;99.90
35531;DHT22;21637;53.352;-6.356;2022-11-20T11:17:21;8.10;99.90
35531;DHT22;21637;53.352;-6.356;2022-11-20T11:19:56;8.20;99.90
35531;DHT22;21637;53.352;-6.356;2022-11-20T11:22:22;8.10;99.90
35531;DHT22;21637;53.352;-6.356;2022-11-20T11:24:51;8.10;99.90
35531;DHT22;21637;53.352;-6.356;2022-11-20T11:27:17;8.00;99.90
35531;DHT22;21637;53.352;-6.356;2022-11-20T11:29:42;8.00;99.90
35531;DHT22;21637;53.352;-6.356;2022-11-20T11:32:11;7.90;99.90
35531;DHT22;21637;53.352;-6.356;2022-11-20T11:34:37;7.90;99.90
35531;DHT22;21637;53.352;-6.356;2022-11-20T11:37:03;7.80;99.90
35531;DHT22;21637;53.352;-6.356;2022-11-20T11:39:30;7.80;99.90
35531;DHT22;21637;53.352;-6.356;2022-11-20T11:41:56;7.80;99.90
35531;DHT22;21637;53.352;-6.356;2022-11-20T11:49:44;7.80;99.90
35531;DHT22;21637;53.352;-6.356;2022-11-20T11:57:01;7.90;99.90
35531;DHT22;21637;53.352;-6.356;2022-11-20T12:02:24;7.90;99.90
35531;DHT22;21637;53.352;-6.356;2022-11-20T12:05:00;7.90;99.90
35531;DHT22;21637;53.352;-6.356;2022-11-20T12:10:00;8.00;99.90
35531;DHT22;21637;53.352;-6.356;2022-11-20T12:12:27;8.00;99.90
35531;DHT22;21637;53.352;-6.356;2022-11-20T12:14:55;8.00;99.90
35531;DHT22;21637;53.352;-6.356;2022-11-20T12:17:21;8.00;99.90
35531;DHT22;21637;53.352;-6.356;2022-11-20T12:19:46;8.00;99.90
35531;DHT22;21637;53.352;-6.356;2022-11-20T12:30:09;8.00;99.90
35531;DHT22;21637;53.352;-6.356;2022-11-20T12:40:24;8.20;99.90
35531;DHT22;21637;53.352;-6.356;2022-11-20T12:42:55;8.30;99.90
35531;DHT22;21637;53.352;-6.356;2022-11-20T12:45:50;8.30;99.90
35531;DHT22;21637;53.352;-6.356;2022-11-20T12:48:28;8.40;99.90
35531;DHT22;21637;53.352;-6.356;2022-11-20T12:56:02;8.50;99.90
35531;DHT22;21637;53.352;-6.356;2022-11-20T12:58:41;8.50;99.90
35531;DHT22;21637;53.352;-6.356;2022-11-20T13:03:56;8.60;99.90
35531;DHT22;21637;53.352;-6.356;2022-11-20T13:06:23;8.60;99.90
35531;DHT22;21637;53.352;-6.356;2022-11-20T13:08:58;8.60;99.90
35531;DHT22;21637;53.352;-6.356;2022-11-20T13:19:16;8.70;99.90
35531;DHT22;21637;53.352;-6.356;2022-11-20T13:21:43;8.80;99.90
35531;DHT22;21637;53.352;-6.356;2022-11-20T13:29:30;8.70;99.90
35531;DHT22;21637;53.352;-6.356;2022-11-20T13:32:29;8.70;99.90
35531;DHT22;21637;53.352;-6.356;2022-11-20T13:34:54;8.80;99.90
35531;DHT22;21637;53.352;-6.356;2022-11-20T13:37:38;8.80;99.90
35531;DHT22;21637;53.352;-6.356;2022-11-20T13:42:35;8.80;99.90
35531;DHT22;21637;53.352;-6.356;2022-11-20T13:45:02;8.80;99.90
35531;DHT22;21637;53.352;-6.356;2022-11-20T13:47:28;8.80;99.90
35531;DHT22;21637;53.352;-6.356;2022-11-20T13:49:58;8.80;99.90
35531;DHT22;21637;53.352;-6.356;2022-11-20T13:52:42;8.80;99.90
35531;DHT22;21637;53.352;-6.356;2022-11-20T14:00:19;8.80;99.90
35531;DHT22;21637;53.352;-6.356;2022-11-20T14:02:59;8.80;99.90
35531;DHT22;21637;53.352;-6.356;2022-11-20T14:05:26;8.80;99.90
35531;DHT22;21637;53.352;-6.356;2022-11-20T14:07:52;8.80;99.90
35531;DHT22;21637;53.352;-6.356;2022-11-20T14:10:22;8.70;99.90
35531;DHT22;21637;53.352;-6.356;2022-11-20T14:12:48;8.70;99.90
35531;DHT22;21637;53.352;-6.356;2022-11-20T14:15:30;8.70;99.90
35531;DHT22;21637;53.352;-6.356;2022-11-20T14:17:56;8.70;99.90
35531;DHT22;21637;53.352;-6.356;2022-11-20T14:20:23;8.60;99.90
35531;DHT22;21637;53.352;-6.356;2022-11-20T14:22:50;8.50;99.90
35531;DHT22;21637;53.352;-6.356;2022-11-20T14:27:47;8.50;99.90
35531;DHT22;21637;53.352;-6.356;2022-11-20T14:30:17;8.50;99.90
35531;DHT22;21637;53.352;-6.356;2022-11-20T14:32:44;8.50;99.90
35531;DHT22;21637;53.352;-6.356;2022-11-20T14:35:13;8.50;99.90
35531;DHT22;21637;53.352;-6.356;2022-11-20T14:37:40;8.50;99.90
35531;DHT22;21637;53.352;-6.356;2022-11-20T14:40:21;8.40;99.90
35531;DHT22;21637;53.352;-6.356;2022-11-20T14:42:47;8.40;99.90
35531;DHT22;21637;53.352;-6.356;2022-11-20T14:45:13;8.40;99.90
35531;DHT22;21637;53.352;-6.356;2022-11-20T14:47:38;8.40;99.90
35531;DHT22;21637;53.352;-6.356;2022-11-20T14:50:07;8.40;99.90
35531;DHT22;21637;53.352;-6.356;2022-11-20T14:52:37;8.40;99.90
35531;DHT22;21637;53.352;-6.356;2022-11-20T14:55:03;8.40;99.90
35531;DHT22;21637;53.352;-6.356;2022-11-20T14:57:32;8.40;99.90
35531;DHT22;21637;53.352;-6.356;2022-11-20T15:00:05;8.40;99.90
35531;DHT22;21637;53.352;-6.356;2022-11-20T15:02:31;8.40;99.90
35531;DHT22;21637;53.352;-6.356;2022-11-20T15:04:57;8.40;99.90
35531;DHT22;21637;53.352;-6.356;2022-11-20T15:07:28;8.30;99.90
35531;DHT22;21637;53.352;-6.356;2022-11-20T15:12:30;8.20;99.90
35531;DHT22;21637;53.352;-6.356;2022-11-20T15:14:56;8.20;99.90
35531;DHT22;21637;53.352;-6.356;2022-11-20T15:17:22;8.20;99.90
35531;DHT22;21637;53.352;-6.356;2022-11-20T15:19:48;8.20;99.90
35531;DHT22;21637;53.352;-6.356;2022-11-20T15:22:13;8.10;99.90
35531;DHT22;21637;53.352;-6.356;2022-11-20T15:24:41;8.10;99.90
35531;DHT22;21637;53.352;-6.356;2022-11-20T15:27:07;8.00;99.90
35531;DHT22;21637;53.352;-6.356;2022-11-20T15:29:33;8.00;99.90
35531;DHT22;21637;53.352;-6.356;2022-11-20T15:31:58;8.00;99.90
35531;DHT22;21637;53.352;-6.356;2022-11-20T15:34:26;7.90;99.90
35531;DHT22;21637;53.352;-6.356;2022-11-20T15:36:51;7.90;99.90
35531;DHT22;21637;53.352;-6.356;2022-11-20T15:39:18;7.80;99.90
35531;DHT22;21637;53.352;-6.356;2022-11-20T15:41:44;7.80;99.90
35531;DHT22;21637;53.352;-6.356;2022-11-20T15:44:09;7.70;99.90
35531;DHT22;21637;53.352;-6.356;2022-11-20T15:46:39;7.70;99.90
35531;DHT22;21637;53.352;-6.356;2022-11-20T15:49:11;7.70;99.90
35531;DHT22;21637;53.352;-6.356;2022-11-20T15:51:38;7.70;99.90
35531;DHT22;21637;53.352;-6.356;2022-11-20T15:56:38;7.60;99.90
35531;DHT22;21637;53.352;-6.356;2022-11-20T15:59:04;7.50;99.90
35531;DHT22;21637;53.352;-6.356;2022-11-20T16:01:30;7.40;99.90
35531;DHT22;21637;53.352;-6.356;2022-11-20T16:03:55;7.40;99.90
35531;DHT22;21637;53.352;-6.356;2022-11-20T16:06:21;7.40;99.90
35531;DHT22;21637;53.352;-6.356;2022-11-20T16:08:47;7.30;99.90
35531;DHT22;21637;53.352;-6.356;2022-11-20T16:11:13;7.30;99.90
35531;DHT22;21637;53.352;-6.356;2022-11-20T16:13:39;7.30;99.90
35531;DHT22;21637;53.352;-6.356;2022-11-20T16:16:25;7.30;99.90
35531;DHT22;21637;53.352;-6.356;2022-11-20T16:18:53;7.30;99.90
35531;DHT22;21637;53.352;-6.356;2022-11-20T16:21:19;7.20;99.90
35531;DHT22;21637;53.352;-6.356;2022-11-20T16:23:45;7.20;99.90
35531;DHT22;21637;53.352;-6.356;2022-11-20T16:26:14;7.20;99.90
35531;DHT22;21637;53.352;-6.356;2022-11-20T16:28:42;7.10;99.90
35531;DHT22;21637;53.352;-6.356;2022-11-20T16:31:11;7.10;99.90
35531;DHT22;21637;53.352;-6.356;2022-11-20T16:33:37;7.10;99.90
35531;DHT22;21637;53.352;-6.356;2022-11-20T16:36:12;7.00;99.90
35531;DHT22;21637;53.352;-6.356;2022-11-20T16:38:38;7.00;99.90
35531;DHT22;21637;53.352;-6.356;2022-11-20T16:41:03;6.90;99.90
35531;DHT22;21637;53.352;-6.356;2022-11-20T16:43:30;6.90;99.90
35531;DHT22;21637;53.352;-6.356;2022-11-20T16:45:55;6.90;99.90
35531;DHT22;21637;53.352;-6.356;2022-11-20T16:48:21;6.80;99.90
35531;DHT22;21637;53.352;-6.356;2022-11-20T16:50:47;6.70;99.90
35531;DHT22;21637;53.352;-6.356;2022-11-20T16:53:14;6.70;99.90
35531;DHT22;21637;53.352;-6.356;2022-11-20T16:55:39;6.60;99.90
35531;DHT22;21637;53.352;-6.356;2022-11-20T16:58:05;6.60;99.90
35531;DHT22;21637;53.352;-6.356;2022-11-20T17:00:30;6.50;99.90
35531;DHT22;21637;53.352;-6.356;2022-11-20T17:02:56;6.50;99.90
35531;DHT22;21637;53.352;-6.356;2022-11-20T17:05:21;6.50;99.90
35531;DHT22;21637;53.352;-6.356;2022-11-20T17:07:47;6.40;99.90
35531;DHT22;21637;53.352;-6.356;2022-11-20T17:10:12;6.50;99.90
35531;DHT22;21637;53.352;-6.356;2022-11-20T17:12:38;6.50;99.90